Nearby METAR Reports

 

YSRI - Richmond (aus-Af, Australia
Distance from station: SW 65km
Updated: 27/05/2024 13:30
Clear
Clear
 Wind from SSE
Wind: SSE 6 km/h
Temperature: 20°C
Dew Point: 13°C
Humidity: 64%
Barometer: 1023 hPa
Clouds: Clear
Visibility: 10 km
2024/05/27 03:30 YSRI 270330Z AUTO 16003KT 9999 // NCD 20/13 Q1023 RF00.0/000.2
YWLM - Williamtown Arp, Australia
Distance from station: NE 69km
Updated: 27/05/2024 13:30
Few Clouds
Few Clouds
 Wind from S
Wind: S 11 km/h
Temperature: 20°C
Dew Point: 14°C
Humidity: 69%
Barometer: 1023 hPa
Clouds: Few Clouds
Visibility: 10 km
Cloud details: Few Clouds 975 m
2024/05/27 03:30 YWLM 270330Z 18006KT 9999 FEW032 20/14 Q1023
 
YSSY - Sydney Intl Airp, Australia
Distance from station: SSW 77km
Updated: 27/05/2024 13:30
Clear
Clear
 Wind from S
Wind: S 20 km/h
Temperature: 18°C
Dew Point: 11°C
Humidity: 64%
Barometer: 1023 hPa
Summary: Clear
Visibility: greater than 10 km
2024/05/27 03:30 YSSY 270330Z 17011KT CAVOK 18/11 Q1023